Kingsville, OH (44068)

6:19 AM EDT on April 21, 2015 (GMT -0400)
Ashtabula Harbor | | Change Station
CLOSE
Current Station
Personal Weather Station
Location: Ashtabula, OH
Elevation: 633 ft
Nearby Weather Stations
Active Advisory: Wind Advisory

Elev 633 ft 41.88 °N, 80.81 °W | Updated 52 seconds ago

Overcast
Overcast
45.0 °F
Feels Like 45 °F
N
0.0
Wind Variable Wind from SSW
Gusts 2.0 mph

Today
High -- | Low -- °F
--% Chance of Precip.
Yesterday
High -- | Low -- °F
Precip. -- in
6:33 AM 8:10 PM
Waxing Crescent, 9% visible
Pressure 29.68 in
Visibility 10.0 miles
Clouds Few 4000 ft
Windchill 45 °F
Dew Point 34 °F
Humidity 64%
Rainfall 0.00 in
Snow Depth Not available.
UV 0 out of 12
Pollen 4.60 out of 12
Air Quality Not available.
Flu Activity Regional
METAR KHZY 210953Z AUTO 24009KT 10SM FEW040 06/M01 A2967 RMK AO2 SLP049 T00561006

More Conditions Fewer Conditions

Pressure 29.68 in
Visibility 10.0 miles
Clouds Few 4000 ft
Windchill 45 °F
Dew Point 34 °F
Humidity 64%
Rainfall 0.00 in
Snow Depth Not available.
UV 0 out of 12
Pollen 4.60 out of 12
Air Quality Not available.
Flu Activity Regional
METAR KHZY 210953Z AUTO 24009KT 10SM FEW040 06/M01 A2967 RMK AO2 SLP049 T00561006

More Conditions Fewer Conditions

10-Day Weather Forecast

Almanac

Astronomy

Apr. 21, 2015 Rise Set
Actual Time
Civil Twilight
Nautical Twilight
Astronomical Twilight
Moon
Length of Visible Light
Length of Day
Tomorrow will be .
, % of the Moon is Illuminated

Today's Extremes

State Highs State Lows

Community

WunderPhotos

Upload Photos

1,815,337 photos uploaded!

WunderBlogs® & News

Nearby

Air Quality

  Air Quality AQ Index Pollutant
Not available.

Snow Depth

Station Depth Elevation

Earthquake Activity

City Distance Mag. Time & Date
Minimum magnitude displayed is 2.5.

Coastal Water Temperatures

Place Temperature

Stations

Nearby Weather Stations

Station Location Temp. Windchill Dew Point Humidity Wind Precip. Elev Updated Type
                   
Wind Advisory
Statement as of 3:39 AM EDT on April 21, 2015

... Wind Advisory in effect from 11 am this morning to 7 PM EDT
this evening...

The National Weather Service in Cleveland has issued a Wind
Advisory... which is in effect from 11 am this morning to 7 PM EDT
this evening.

* Winds... southwest 15 to 30 mph with gusts between 45 and 50 mph.

* Timing... mainly this afternoon.

* Impacts... the gusty winds will blow around loose objects and
some limbs and possible a few power lines could get knocked down.
Drivers of high profile vehicles will have to use caution.

Precautionary/preparedness actions...

A Wind Advisory is issued when sustained winds are forecast to be
31 to 39 mph or gusts will range between 46 and 57 mph. Winds of
these magnitudes may cause minor property damage without extra
precautions. Motorists in high profile vehicles should use
caution until the winds subside. Stay tuned to NOAA Weather Radio
for further details or updates.